Time;durP1;ratioP1;P1;durP2;ratioP2;P2;SDS_P1;SDS_P2;PMS_P1;PMS_P2;Temp;Humidity;BMP_temperature;BMP_pressure;BME280_temperature;BME280_humidity;BME280_pressure;Samples;Min_cycle;Max_cycle;Signal;HPM_P1;HPM_P2
2020/12/20 00:02:25;;;;;;;48.28;24.47;;;;;;;3.58;84.48;101884.64;1725135;82;21240;-72
2020/12/20 00:04:53;;;;;;;43.90;23.50;;;;;;;3.57;84.49;101887.48;1697621;82;21230;-70
2020/12/20 00:07:21;;;;;;;50.28;25.50;;;;;;;3.58;84.55;101889.11;1681081;84;21328;-72
2020/12/20 00:09:50;;;;;;;43.52;23.57;;;;;;;3.59;84.56;101891.59;1691408;82;21761;-73
2020/12/20 00:12:18;;;;;;;46.60;23.62;;;;;;;3.62;84.61;101891.71;1673881;84;21405;-71
2020/12/20 00:14:46;;;;;;;48.98;23.85;;;;;;;3.65;84.61;101887.39;1689297;82;21170;-70
2020/12/20 00:17:14;;;;;;;43.58;22.27;;;;;;;3.66;84.56;101900.44;1679186;83;21182;-72
2020/12/20 00:19:43;;;;;;;51.70;25.30;;;;;;;3.65;84.49;101901.92;1704296;81;21190;-72
2020/12/20 00:22:13;;;;;;;50.28;25.35;;;;;;;3.65;84.48;101896.64;1735110;82;21104;-71
2020/12/20 00:24:42;;;;;;;48.78;25.37;;;;;;;3.68;84.50;101898.93;1727957;82;21595;-70
2020/12/20 00:27:13;;;;;;;49.10;24.55;;;;;;;3.68;84.51;101894.97;1720365;81;21216;-70
2020/12/20 00:29:42;;;;;;;45.48;22.73;;;;;;;3.68;84.48;101893.64;1732938;82;21683;-69
2020/12/20 00:32:11;;;;;;;47.17;22.73;;;;;;;3.69;84.47;101890.84;1733593;82;21183;-70
2020/12/20 00:34:39;;;;;;;43.92;23.12;;;;;;;3.69;84.39;101893.98;1734053;82;21191;-70
2020/12/20 00:37:07;;;;;;;51.53;25.20;;;;;;;3.65;84.35;101897.97;1731666;82;21630;-70
2020/12/20 00:39:35;;;;;;;51.65;24.90;;;;;;;3.60;84.34;101897.69;1731188;82;21387;-70
2020/12/20 00:42:06;;;;;;;49.93;24.72;;;;;;;3.60;84.35;101897.69;1716425;81;21511;-69
2020/12/20 00:44:35;;;;;;;57.10;25.75;;;;;;;3.59;84.36;101896.88;1734077;82;21172;-70
2020/12/20 00:47:04;;;;;;;55.25;25.70;;;;;;;3.63;84.37;101890.23;1731976;82;21247;-69
2020/12/20 00:49:32;;;;;;;58.17;24.65;;;;;;;3.64;84.31;101888.41;1734194;82;22087;-70
2020/12/20 00:52:04;;;;;;;58.95;26.57;;;;;;;3.60;84.33;101887.13;1732980;82;22281;-70
2020/12/20 00:54:32;;;;;;;;;;;;;;;3.58;84.32;101885.15;1734420;82;21646;-70
2020/12/20 00:57:00;;;;;;;61.75;27.10;;;;;;;3.57;84.34;101893.58;1738847;81;20281;-70
2020/12/20 00:59:29;;;;;;;58.95;26.95;;;;;;;3.53;84.37;101886.52;1741722;80;21226;-70
2020/12/20 01:01:57;;;;;;;59.85;26.50;;;;;;;3.55;84.37;101889.47;1711864;83;21421;-70
2020/12/20 01:04:26;;;;;;;56.10;26.30;;;;;;;3.53;84.41;101882.55;1747491;80;21183;-71
2020/12/20 01:06:59;;;;;;;52.73;24.45;;;;;;;3.57;84.46;101886.97;1743435;81;21099;-71
2020/12/20 01:09:29;;;;;;;51.77;24.25;;;;;;;3.60;84.49;101888.45;1727078;83;21623;-71
2020/12/20 01:11:57;;;;;;;49.25;24.10;;;;;;;3.61;84.48;101888.76;1751835;80;21185;-70
2020/12/20 01:14:27;;;;;;;52.65;26.52;;;;;;;3.61;84.46;101891.40;1787249;80;21363;-71
2020/12/20 01:17:04;;;;;;;53.02;24.80;;;;;;;3.62;84.43;101896.52;1783909;80;21648;-71
2020/12/20 01:19:34;;;;;;;50.25;24.63;;;;;;;3.64;84.47;101887.90;1769923;80;21163;-72
2020/12/20 01:22:02;;;;;;;56.68;26.48;;;;;;;3.65;84.42;101888.72;1778145;78;21155;-71
2020/12/20 01:24:31;;;;;;;56.55;26.25;;;;;;;3.63;84.38;101894.70;1786862;80;21496;-71
2020/12/20 01:27:00;;;;;;;51.50;24.45;;;;;;;3.61;84.38;101899.33;1779407;80;22287;-71
2020/12/20 01:29:29;;;;;;;55.78;26.93;;;;;;;3.62;84.36;101899.16;1762414;80;21195;-70
2020/12/20 01:31:57;;;;;;;56.33;26.52;;;;;;;3.62;84.36;101895.67;1779277;80;21695;-71
2020/12/20 01:34:26;;;;;;;59.05;27.07;;;;;;;3.64;84.40;101893.19;1774550;80;22038;-71
2020/12/20 01:36:57;;;;;;;57.17;25.40;;;;;;;3.67;84.42;101897.30;1782830;80;21280;-71
2020/12/20 01:39:27;;;;;;;59.45;28.20;;;;;;;3.66;84.33;101899.13;1769829;80;22615;-70
2020/12/20 01:41:54;;;;;;;58.92;25.37;;;;;;;3.62;84.29;101902.28;1772647;80;21682;-71
2020/12/20 01:44:24;;;;;;;55.40;25.02;;;;;;;3.62;84.28;101896.52;1777703;80;21168;-71
2020/12/20 01:46:55;;;;;;;59.13;27.05;;;;;;;3.64;84.24;101904.26;1785868;80;21156;-70
2020/12/20 01:49:23;;;;;;;56.23;25.60;;;;;;;3.63;84.26;101898.16;1761046;80;21179;-71
2020/12/20 01:51:51;;;;;;;55.15;25.50;;;;;;;3.65;84.31;101893.53;1780622;80;21356;-71
2020/12/20 01:54:20;;;;;;;54.58;25.40;;;;;;;3.68;84.30;101896.28;1762604;80;21152;-71
2020/12/20 01:57:06;;;;;;;59.60;30.82;;;;;;;3.74;84.28;101891.61;1757838;79;28025;-70
2020/12/20 01:59:54;;;;;;;57.60;27.70;;;;;;;3.82;84.18;101895.52;1725647;80;21849;-70
2020/12/20 02:02:23;;;;;;;59.90;27.65;;;;;;;3.84;84.00;101898.78;1767543;80;21916;-70
2020/12/20 02:04:53;;;;;;;61.90;27.95;;;;;;;3.82;83.99;101897.31;1761271;79;21233;-71
2020/12/20 02:07:22;;;;;;;51.18;25.57;;;;;;;3.78;83.98;101897.36;1777437;79;21179;-70
2020/12/20 02:09:52;;;;;;;58.20;26.65;;;;;;;3.76;83.95;101897.55;1755987;79;21153;-71
2020/12/20 02:12:26;;;;;;;64.50;28.92;;;;;;;3.70;83.89;101900.91;1769784;79;21628;-70
2020/12/20 02:14:56;;;;;;;57.75;26.77;;;;;;;3.67;83.88;101907.36;1749834;80;21270;-69
2020/12/20 02:17:24;;;;;;;59.73;27.58;;;;;;;3.64;83.92;101900.30;1769991;79;21201;-70
2020/12/20 02:19:52;;;;;;;62.95;29.42;;;;;;;3.61;83.96;101898.00;1754841;79;21667;-70
2020/12/20 02:22:38;;;;;;;64.45;27.67;;;;;;;3.60;84.00;101898.51;1761266;79;21170;-71
2020/12/20 02:25:06;;;;;;;63.45;27.07;;;;;;;3.62;84.03;101900.95;1756181;79;21295;-70
2020/12/20 02:27:46;;;;;;;76.03;31.20;;;;;;;3.66;84.06;101896.48;1801633;79;22801;-71
2020/12/20 02:30:15;;;;;;;65.45;28.07;;;;;;;3.65;84.11;101903.25;1801717;79;21186;-71
2020/12/20 02:32:45;;;;;;;60.90;28.12;;;;;;;3.69;84.09;101902.73;1786394;79;21360;-71
2020/12/20 02:35:13;;;;;;;64.58;28.67;;;;;;;3.67;84.04;101902.58;1793992;78;21219;-70
2020/12/20 02:37:41;;;;;;;69.25;29.50;;;;;;;3.66;84.06;101896.48;1787070;80;21681;-71
2020/12/20 02:40:09;;;;;;;69.62;29.67;;;;;;;3.66;84.03;101898.30;1811204;78;21632;-71
2020/12/20 02:42:38;;;;;;;65.37;28.80;;;;;;;3.70;84.06;101902.23;1784779;80;21163;-70
2020/12/20 02:45:07;;;;;;;61.70;27.75;;;;;;;3.73;84.06;101899.23;1793520;78;21351;-71
2020/12/20 02:47:36;;;;;;;67.20;29.60;;;;;;;3.72;84.04;101905.53;1769922;80;21577;-71
2020/12/20 02:50:04;;;;;;;69.05;28.85;;;;;;;3.71;84.04;101915.25;1788840;78;21156;-71
2020/12/20 02:52:33;;;;;;;61.83;28.38;;;;;;;3.71;84.00;101909.96;1764787;80;21111;-71
2020/12/20 02:55:01;;;;;;;60.88;28.32;;;;;;;3.70;83.97;101914.12;1769624;79;21195;-71
2020/12/20 02:57:30;;;;;;;57.95;27.73;;;;;;;3.69;83.93;101911.98;1781887;80;21382;-71
2020/12/20 03:00:17;;;;;;;60.75;31.35;;;;;;;3.72;83.98;101905.53;1792902;77;28253;-70
2020/12/20 03:02:45;;;;;;;50.60;25.62;;;;;;;3.76;83.96;101912.09;1793002;79;21308;-70
2020/12/20 03:05:14;;;;;;;55.67;26.87;;;;;;;3.76;83.86;101906.30;1807833;79;22259;-70
2020/12/20 03:07:42;;;;;;;61.25;29.52;;;;;;;3.74;83.84;101908.80;1812558;79;21208;-70
2020/12/20 03:10:12;;;;;;;55.17;26.57;;;;;;;3.72;83.88;101908.98;1812102;77;21225;-70
2020/12/20 03:12:40;;;;;;;50.17;25.00;;;;;;;3.73;83.93;101910.62;1779615;79;21596;-71
2020/12/20 03:15:08;;;;;;;53.73;25.30;;;;;;;3.75;83.94;101915.23;1785680;79;21591;-70
2020/12/20 03:17:36;;;;;;;45.48;23.05;;;;;;;3.78;83.90;101908.75;1801960;79;21366;-70
2020/12/20 03:20:06;;;;;;;48.90;23.47;;;;;;;3.76;83.83;101911.59;1801742;79;21250;-70
2020/12/20 03:22:34;;;;;;;49.30;25.55;;;;;;;3.74;83.85;101916.72;1801016;79;21204;-70
2020/12/20 03:25:12;;;;;;;50.43;25.03;;;;;;;3.79;83.85;101910.41;1773329;79;23398;-71
2020/12/20 03:27:44;;;;;;;;;;;;;;;3.73;83.83;101920.38;1739235;82;21183;-69
2020/12/20 03:30:22;;;;;;;46.88;24.25;;;;;;;3.73;83.82;101925.16;1726286;82;21456;-70
2020/12/20 03:33:01;;;;;;;50.80;25.43;;;;;;;3.73;83.79;101924.33;1774739;79;23488;-70
2020/12/20 03:35:31;;;;;;;57.17;26.30;;;;;;;3.61;83.73;101931.03;1722464;82;21499;-69
2020/12/20 03:38:03;;;;;;;54.67;26.70;;;;;;;3.60;83.83;101928.89;1748553;82;21368;-70
2020/12/20 03:40:32;;;;;;;66.77;29.25;;;;;;;3.64;83.89;101929.36;1755195;80;21176;-70
2020/12/20 03:43:00;;;;;;;63.70;28.87;;;;;;;3.69;83.94;101937.59;1744769;82;21626;-70
2020/12/20 03:45:30;;;;;;;58.63;27.50;;;;;;;3.71;83.92;101942.17;1744171;81;21173;-71
2020/12/20 03:47:59;;;;;;;57.20;27.07;;;;;;;3.70;83.86;101945.83;1731154;80;21229;-71
2020/12/20 03:50:27;;;;;;;59.98;27.05;;;;;;;3.67;83.83;101943.53;1712877;82;22455;-70
2020/12/20 03:52:55;;;;;;;63.13;28.50;;;;;;;3.61;83.82;101950.34;1792068;79;21688;-70
2020/12/20 03:55:24;;;;;;;63.15;27.10;;;;;;;3.57;83.85;101954.84;1799597;79;21178;-70
2020/12/20 03:57:53;;;;;;;60.10;26.17;;;;;;;3.50;83.89;101950.27;1762422;80;21201;-70
2020/12/20 04:00:22;;;;;;;53.65;25.92;;;;;;;3.49;83.99;101953.09;1762335;81;21208;-71
2020/12/20 04:02:52;;;;;;;61.18;26.42;;;;;;;3.51;84.04;101959.82;1738726;81;22187;-71
2020/12/20 04:05:22;;;;;;;62.58;27.70;;;;;;;3.57;84.09;101962.27;1757214;79;21231;-71
2020/12/20 04:07:50;;;;;;;67.92;26.85;;;;;;;3.56;84.09;101961.14;1754957;79;21679;-70
2020/12/20 04:10:18;;;;;;;64.07;26.62;;;;;;;3.53;84.11;101963.62;1748170;81;21168;-70
2020/12/20 04:12:46;;;;;;;66.70;27.17;;;;;;;3.47;84.17;101967.78;1754831;81;21589;-70
2020/12/20 04:15:14;;;;;;;55.12;24.87;;;;;;;3.41;84.24;101973.75;1746787;81;21456;-71
2020/12/20 04:17:42;;;;;;;54.93;24.55;;;;;;;3.39;84.29;101972.28;1742737;81;21203;-71
2020/12/20 04:20:10;;;;;;;52.17;23.07;;;;;;;3.37;84.35;101977.75;1744074;81;21155;-71
2020/12/20 04:22:47;;;;;;;60.40;24.17;;;;;;;3.36;84.41;101978.76;1813150;78;22779;-70
2020/12/20 04:25:17;;;;;;;54.70;24.35;;;;;;;3.31;84.52;101982.41;1821663;78;21096;-71
2020/12/20 04:27:48;;;;;;;53.13;23.40;;;;;;;3.30;84.61;101982.09;1813016;78;21214;-70
2020/12/20 04:30:16;;;;;;;49.25;22.00;;;;;;;3.34;84.72;101986.02;1787618;80;21578;-70
2020/12/20 04:32:46;;;;;;;46.02;19.55;;;;;;;3.42;84.75;101990.42;1790294;79;21068;-70
2020/12/20 04:35:14;;;;;;;46.77;19.75;;;;;;;3.49;84.79;101994.85;1821765;78;21576;-71
2020/12/20 04:37:42;;;;;;;41.90;18.12;;;;;;;3.56;84.81;101991.02;1803567;78;21576;-71
2020/12/20 04:40:21;;;;;;;42.57;19.23;;;;;;;3.61;84.79;101991.80;1810901;78;22759;-70
2020/12/20 04:42:51;;;;;;;46.48;18.77;;;;;;;3.55;84.74;102003.06;1756386;80;21068;-70
2020/12/20 04:45:19;;;;;;;43.83;19.85;;;;;;;3.52;84.66;102006.87;1797350;78;21174;-71
2020/12/20 04:47:49;;;;;;;41.53;18.50;;;;;;;3.49;84.68;102012.53;1798690;78;21132;-71
2020/12/20 04:50:18;;;;;;;42.90;20.32;;;;;;;3.42;84.69;102010.23;1799730;77;21063;-72
2020/12/20 04:52:47;;;;;;;49.73;21.70;;;;;;;3.33;84.74;102004.19;1788951;78;21119;-71
2020/12/20 04:55:16;;;;;;;42.90;20.52;;;;;;;3.30;84.80;102008.50;1766260;78;21183;-71
2020/12/20 04:58:03;;;;;;;44.65;21.50;;;;;;;3.33;84.91;102010.80;1775476;80;21386;-70
2020/12/20 05:00:32;;;;;;;43.68;20.75;;;;;;;3.37;84.97;102010.77;1793039;78;21503;-71
2020/12/20 05:03:00;;;;;;;35.13;17.42;;;;;;;3.39;85.01;102010.10;1819557;77;21167;-71
2020/12/20 05:05:28;;;;;;;35.38;17.60;;;;;;;3.37;85.00;102004.16;1796107;77;21472;-72
2020/12/20 05:07:56;;;;;;;32.25;16.17;;;;;;;3.34;85.01;102011.11;1794862;78;21155;-72
2020/12/20 05:10:39;;;;;;;32.30;16.15;;;;;;;3.34;85.04;102008.47;1772099;77;21667;-72
2020/12/20 05:13:08;;;;;;;31.82;17.17;;;;;;;3.38;85.05;102012.41;1813696;77;21154;-70
2020/12/20 05:15:35;;;;;;;32.33;16.48;;;;;;;3.38;85.04;102009.76;1771343;79;21112;-70
2020/12/20 05:18:35;;;;;;;27.17;14.87;;;;;;;3.43;85.03;102010.08;1815312;79;22735;-70
2020/12/20 05:21:05;;;;;;;27.00;14.58;;;;;;;3.40;85.04;102020.98;1789509;80;21192;-70
2020/12/20 05:23:32;;;;;;;24.95;13.38;;;;;;;3.39;85.00;102011.90;1711347;80;21203;-70
2020/12/20 05:26:31;;;;;;;29.65;16.50;;;;;;;3.47;85.04;102008.72;1770362;78;28129;-70
2020/12/20 05:29:09;;;;;;;27.22;14.38;;;;;;;3.57;85.01;102010.33;1812256;78;21156;-71
2020/12/20 05:31:37;;;;;;;24.57;13.05;;;;;;;3.61;84.81;102011.11;1789040;80;21492;-72
2020/12/20 05:34:16;;;;;;;26.63;13.27;;;;;;;3.63;84.73;102010.95;1772177;79;23540;-71
2020/12/20 05:36:45;;;;;;;26.45;12.82;;;;;;;3.56;84.72;102011.33;1710900;82;21512;-70
2020/12/20 05:39:24;;;;;;;22.43;11.80;;;;;;;3.58;84.65;102014.60;1756620;79;24075;-70
2020/12/20 05:41:56;;;;;;;27.42;13.35;;;;;;;3.49;84.71;102027.88;1734136;82;21113;-71
2020/12/20 05:44:24;;;;;;;17.92;9.25;;;;;;;3.44;84.74;102028.88;1730017;82;21460;-71
2020/12/20 05:46:53;;;;;;;25.27;13.22;;;;;;;3.38;84.74;102032.71;1729033;81;21160;-72
2020/12/20 05:49:23;;;;;;;23.73;11.60;;;;;;;3.25;84.78;102035.91;1730340;81;21715;-71
2020/12/20 05:52:09;;;;;;;28.02;14.40;;;;;;;3.17;84.91;102042.05;1715245;82;21490;-71
2020/12/20 05:54:40;;;;;;;22.65;11.53;;;;;;;3.12;85.08;102042.23;1732386;81;21587;-71
2020/12/20 05:57:14;;;;;;;23.00;12.55;;;;;;;3.12;85.24;102039.59;1727384;81;22372;-70
2020/12/20 05:59:45;;;;;;;25.68;13.18;;;;;;;3.14;85.32;102047.67;1718431;81;21191;-71
2020/12/20 06:02:12;;;;;;;22.42;12.37;;;;;;;3.14;85.39;102044.22;1731866;81;21694;-70
2020/12/20 06:04:42;;;;;;;24.57;12.90;;;;;;;3.19;85.43;102048.00;1720262;81;21171;-71
2020/12/20 06:07:12;;;;;;;26.97;13.72;;;;;;;3.23;85.47;102053.25;1739512;81;21172;-72
2020/12/20 06:10:05;;;;;;;26.93;14.87;;;;;;;3.22;85.45;102057.37;1740242;82;21451;-72
2020/12/20 06:12:41;;;;;;;22.45;12.85;;;;;;;3.19;85.46;102053.75;1717671;81;21234;-71
2020/12/20 06:15:08;;;;;;;23.22;12.80;;;;;;;3.17;85.55;102056.58;1726073;81;21164;-70
2020/12/20 06:17:41;;;;;;;26.12;14.00;;;;;;;3.19;85.53;102059.03;1689212;82;21607;-71
2020/12/20 06:20:11;;;;;;;26.55;15.68;;;;;;;3.17;85.55;102058.40;1739859;81;21211;-70
2020/12/20 06:22:40;;;;;;;35.05;18.20;;;;;;;3.15;85.64;102059.05;1695220;81;21398;-71
2020/12/20 06:25:08;;;;;;;33.73;18.95;;;;;;;3.14;85.68;102058.73;1711613;81;21159;-71
2020/12/20 06:27:36;;;;;;;27.60;16.48;;;;;;;3.12;85.73;102063.35;1732699;81;21080;-71
2020/12/20 06:30:06;;;;;;;28.42;16.37;;;;;;;3.12;85.79;102069.45;1711815;81;21077;-71
2020/12/20 06:32:46;;;;;;;29.95;16.48;;;;;;;3.15;85.80;102076.22;1732473;81;21076;-71
2020/12/20 06:35:26;;;;;;;30.35;17.48;;;;;;;3.12;85.85;102071.27;1738181;82;21225;-72
2020/12/20 06:37:54;;;;;;;32.28;18.95;;;;;;;3.13;85.94;102072.94;1761786;79;21133;-72
2020/12/20 06:40:37;;;;;;;25.95;14.53;;;;;;;3.15;86.01;102077.03;1772741;80;21092;-72
2020/12/20 06:43:15;;;;;;;24.37;14.57;;;;;;;3.29;86.11;102075.48;1798503;77;22619;-71
2020/12/20 06:45:46;;;;;;;24.50;14.15;;;;;;;3.34;86.10;102077.64;1821151;78;21078;-72
2020/12/20 06:48:14;;;;;;;27.20;16.12;;;;;;;3.39;86.09;102078.78;1790016;78;21872;-71
2020/12/20 06:50:49;;;;;;;25.95;15.40;;;;;;;3.44;86.07;102086.17;1817496;78;21152;-71
2020/12/20 06:53:18;;;;;;;21.90;12.35;;;;;;;3.49;86.05;102080.70;1767579;80;21507;-71
2020/12/20 06:55:46;;;;;;;24.35;13.50;;;;;;;3.55;85.98;102084.95;1825679;77;21543;-71
2020/12/20 06:58:20;;;;;;;22.48;13.60;;;;;;;3.57;85.92;102078.52;1845550;77;21084;-72
2020/12/20 07:00:55;;;;;;;24.55;14.35;;;;;;;3.58;85.90;102081.97;1825141;78;21365;-71
2020/12/20 07:03:31;;;;;;;23.70;15.00;;;;;;;3.58;85.89;102082.80;1776388;79;21208;-72
2020/12/20 07:06:10;;;;;;;22.02;14.03;;;;;;;3.54;85.84;102080.17;1767480;81;21198;-71
2020/12/20 07:08:40;;;;;;;23.05;13.05;;;;;;;3.50;85.82;102083.66;1783228;79;21206;-72
2020/12/20 07:11:24;;;;;;;21.73;13.13;;;;;;;3.50;85.84;102083.66;1775091;80;21148;-71
2020/12/20 07:13:54;;;;;;;22.60;12.28;;;;;;;3.56;85.84;102085.30;1760460;80;21155;-71
2020/12/20 07:16:25;;;;;;;24.60;14.60;;;;;;;3.58;85.81;102077.50;1833615;77;21052;-72
2020/12/20 07:19:02;;;;;;;23.42;14.45;;;;;;;3.58;85.75;102084.61;1780165;80;21186;-72
2020/12/20 07:21:46;;;;;;;21.97;12.78;;;;;;;3.58;85.73;102089.39;1771115;79;21171;-71
2020/12/20 07:24:22;;;;;;;21.82;11.80;;;;;;;3.60;85.68;102091.37;1743464;81;21164;-71
2020/12/20 07:26:53;;;;;;;24.23;13.75;;;;;;;3.66;85.67;102089.38;1767819;79;21355;-71
2020/12/20 07:29:21;;;;;;;24.45;14.23;;;;;;;3.66;85.58;102086.73;1768255;79;21220;-72
2020/12/20 07:31:53;;;;;;;23.32;14.13;;;;;;;3.66;85.51;102091.19;1767478;79;21149;-72
2020/12/20 07:34:21;;;;;;;21.95;11.60;;;;;;;3.68;85.50;102093.96;1767010;79;21152;-72
2020/12/20 07:36:49;;;;;;;22.58;13.22;;;;;;;3.66;85.41;102093.84;1767991;79;21171;-72
2020/12/20 07:39:17;;;;;;;23.50;13.60;;;;;;;3.67;85.35;102092.33;1766568;81;21211;-72
2020/12/20 07:41:45;;;;;;;25.90;14.85;;;;;;;3.69;85.32;102093.49;1771879;79;21635;-72
2020/12/20 07:44:13;;;;;;;25.82;15.68;;;;;;;3.68;85.25;102089.18;1767372;79;21179;-72
2020/12/20 07:46:42;;;;;;;22.73;13.38;;;;;;;3.69;85.24;102090.85;1767951;79;21516;-72
2020/12/20 07:49:14;;;;;;;20.72;11.70;;;;;;;3.74;85.25;102091.13;1768006;79;21176;-71
2020/12/20 07:51:42;;;;;;;21.23;12.45;;;;;;;3.79;85.11;102095.92;1769035;79;21356;-71
2020/12/20 07:54:14;;;;;;;18.92;11.33;;;;;;;3.80;84.93;102096.23;1767133;81;21179;-72
2020/12/20 07:56:47;;;;;;;24.00;13.98;;;;;;;3.79;84.79;102100.70;1767443;79;21539;-71
2020/12/20 07:59:18;;;;;;;17.07;11.08;;;;;;;3.77;84.73;102097.39;1767335;79;21258;-72
2020/12/20 08:01:48;;;;;;;19.73;10.95;;;;;;;3.78;84.61;102100.35;1770625;79;21124;-71
2020/12/20 08:04:18;;;;;;;22.67;12.93;;;;;;;3.77;84.48;102109.28;1775624;80;21352;-72
2020/12/20 08:06:51;;;;;;;25.23;14.85;;;;;;;3.74;84.37;102112.27;1759876;80;21069;-72
2020/12/20 08:09:24;;;;;;;20.88;13.08;;;;;;;3.75;84.40;102117.87;1826108;77;21610;-72
2020/12/20 08:11:52;;;;;;;28.17;16.35;;;;;;;3.80;84.37;102114.23;1823425;78;21160;-72
2020/12/20 08:14:22;;;;;;;22.93;15.28;;;;;;;3.84;84.30;102111.55;1838517;77;21120;-72
2020/12/20 08:16:52;;;;;;;22.02;14.07;;;;;;;3.83;84.14;102113.88;1852235;77;21368;-71
2020/12/20 08:19:31;;;;;;;26.35;13.93;;;;;;;3.86;84.15;102118.01;1828893;77;21689;-71
2020/12/20 08:22:15;;;;;;;24.18;15.50;;;;;;;3.92;84.08;102116.81;1831304;77;21603;-71
2020/12/20 08:24:48;;;;;;;22.50;13.13;;;;;;;3.94;84.00;102113.48;1842963;77;21500;-71
2020/12/20 08:27:25;;;;;;;21.75;12.30;;;;;;;3.98;83.89;102123.20;1824699;77;21116;-71
2020/12/20 08:29:56;;;;;;;21.62;12.55;;;;;;;3.92;83.65;102116.81;1824872;76;21548;-71
2020/12/20 08:32:43;;;;;;;21.77;12.90;;;;;;;3.88;83.55;102115.52;1829300;77;21513;-71
2020/12/20 08:35:21;;;;;;;23.25;12.43;;;;;;;3.86;83.48;102114.86;1822480;77;21592;-71
2020/12/20 08:37:58;;;;;;;26.68;14.87;;;;;;;3.85;83.40;102118.98;1822505;77;21136;-72
2020/12/20 08:40:31;;;;;;;24.23;14.63;;;;;;;3.78;83.44;102116.21;1827465;76;21042;-72
2020/12/20 08:42:59;;;;;;;25.35;14.25;;;;;;;3.82;83.46;102112.25;1825222;77;21375;-72
2020/12/20 08:45:29;;;;;;;27.75;15.43;;;;;;;3.84;83.40;102114.20;1830047;77;21136;-72
2020/12/20 08:48:02;;;;;;;22.35;13.38;;;;;;;3.90;83.41;102112.19;1824899;77;21180;-72
2020/12/20 08:50:31;;;;;;;;;;;;;;;3.95;83.40;102109.03;1828719;77;21615;-72
2020/12/20 08:53:05;;;;;;;25.52;14.15;;;;;;;3.97;83.26;102110.48;1825283;77;20281;-71
2020/12/20 08:55:33;;;;;;;21.80;12.10;;;;;;;3.93;83.15;102110.52;1831468;77;21371;-72
2020/12/20 08:58:05;;;;;;;22.50;13.88;;;;;;;3.86;83.02;102114.86;1823222;77;21191;-71
2020/12/20 09:03:11;;;;;;;25.87;14.10;;;;;;;3.71;82.94;102117.41;1755469;79;22834;-72
2020/12/20 09:05:39;;;;;;;27.22;16.57;;;;;;;3.64;83.04;102115.63;1770932;80;21119;-71
2020/12/20 09:08:07;;;;;;;26.30;15.40;;;;;;;3.65;83.13;102115.95;1771789;79;21278;-72
2020/12/20 09:10:35;;;;;;;20.00;10.72;;;;;;;3.67;83.13;102120.07;1767639;80;21691;-72
2020/12/20 09:13:06;;;;;;;23.67;15.15;;;;;;;3.66;82.90;102121.08;1757117;79;21189;-72
2020/12/20 09:15:35;;;;;;;28.70;16.27;;;;;;;3.56;82.85;102119.15;1771758;80;21114;-72
2020/12/20 09:18:21;;;;;;;26.40;15.25;;;;;;;3.60;83.03;102127.05;1777954;80;21122;-71
2020/12/20 09:20:49;;;;;;;30.77;20.40;;;;;;;3.68;83.08;102117.74;1765142;79;22185;-71
2020/12/20 09:23:21;;;;;;;23.35;13.18;;;;;;;3.71;82.99;102119.23;1767990;80;21230;-72
2020/12/20 09:25:49;;;;;;;;;;;;;;;3.67;82.78;102120.07;1778305;79;21198;-71
2020/12/20 09:28:28;;;;;;;28.87;17.77;;;;;;;3.56;82.71;102117.83;1754075;81;20294;-73
2020/12/20 09:30:57;;;;;;;23.77;14.90;;;;;;;3.54;82.84;102123.77;1746394;79;21183;-70
2020/12/20 09:33:39;;;;;;;28.80;16.65;;;;;;;3.56;82.82;102115.69;1759635;81;21579;-72
2020/12/20 09:36:12;;;;;;;28.45;15.80;;;;;;;3.59;82.84;102117.98;1801512;79;21115;-73
2020/12/20 09:38:50;;;;;;;23.40;14.73;;;;;;;3.68;82.81;102124.35;1786660;79;21178;-72
2020/12/20 09:41:24;;;;;;;24.57;15.85;;;;;;;3.70;82.48;102126.34;1801365;77;21203;-72
2020/12/20 09:43:52;;;;;;;29.18;18.42;;;;;;;3.63;82.41;102119.28;1791043;79;21183;-72
2020/12/20 09:46:33;;;;;;;28.15;18.80;;;;;;;3.53;82.42;102118.98;1789685;79;21547;-71
2020/12/20 09:49:01;;;;;;;27.07;17.67;;;;;;;3.52;82.50;102119.14;1812776;79;21216;-71
2020/12/20 09:51:32;;;;;;;26.60;17.00;;;;;;;3.53;82.51;102121.63;1794784;77;21485;-71
2020/12/20 09:54:00;;;;;;;27.55;18.52;;;;;;;3.53;82.49;102122.95;1786395;79;21518;-72
2020/12/20 09:56:29;;;;;;;30.92;22.98;;;;;;;3.56;82.55;102118.33;1782118;79;21507;-71
2020/12/20 09:58:56;;;;;;;28.62;17.90;;;;;;;3.56;82.51;102117.01;1794623;77;21432;-71
2020/12/20 10:01:28;;;;;;;26.25;17.42;;;;;;;3.62;82.54;102125.07;1751087;79;21320;-72
2020/12/20 10:03:55;;;;;;;24.63;17.35;;;;;;;3.67;82.37;102120.58;1722842;81;21186;-71
2020/12/20 10:06:23;;;;;;;28.40;18.20;;;;;;;3.67;82.22;102120.58;1722257;82;21326;-72
2020/12/20 10:08:51;;;;;;;27.80;17.65;;;;;;;3.64;82.18;102115.63;1735641;81;21225;-71
2020/12/20 10:11:19;;;;;;;24.75;16.73;;;;;;;3.65;82.15;102118.59;1725229;82;22246;-72
2020/12/20 10:13:48;;;;;;;23.80;16.00;;;;;;;3.67;82.02;102120.07;1728358;81;21676;-72
2020/12/20 10:16:19;;;;;;;27.27;16.48;;;;;;;3.66;81.81;102114.97;1730647;81;21159;-71
2020/12/20 10:18:47;;;;;;;23.95;16.10;;;;;;;3.62;81.47;102122.89;1731036;81;21117;-71
2020/12/20 10:21:17;;;;;;;29.15;17.02;;;;;;;3.61;81.55;102114.66;1730877;81;21156;-70
2020/12/20 10:23:47;;;;;;;30.08;16.32;;;;;;;3.63;81.51;102113.50;1732490;81;21365;-72
2020/12/20 10:26:15;;;;;;;24.52;14.47;;;;;;;3.67;81.52;102113.47;1735914;82;21615;-76
2020/12/20 10:28:44;;;;;;;23.30;15.75;;;;;;;3.70;81.39;102112.30;1731009;81;21528;-76
2020/12/20 10:31:19;;;;;;;23.12;14.73;;;;;;;3.70;81.32;102108.34;1729076;81;21143;-81
2020/12/20 10:33:52;;;;;;;23.25;15.48;;;;;;;3.70;81.25;102105.70;1727549;81;21168;-72
2020/12/20 10:36:20;;;;;;;26.52;16.93;;;;;;;3.70;81.21;102104.37;1731988;81;21298;-74
2020/12/20 10:38:48;;;;;;;26.15;18.23;;;;;;;3.68;81.19;102102.39;1723658;81;21139;-75
2020/12/20 10:41:17;;;;;;;22.62;14.90;;;;;;;3.68;81.16;102099.75;1731149;81;21226;-73
2020/12/20 10:43:45;;;;;;;22.17;14.23;;;;;;;3.70;81.13;102097.27;1726057;81;21191;-74
2020/12/20 10:46:13;;;;;;;33.02;20.95;;;;;;;3.70;81.09;102102.55;1735942;81;21171;-73
2020/12/20 10:48:41;;;;;;;28.27;19.92;;;;;;;3.67;81.12;102100.75;1731437;81;21976;-73
2020/12/20 10:51:11;;;;;;;33.55;21.48;;;;;;;3.65;81.12;102106.70;1730532;81;21182;-74
2020/12/20 10:53:38;;;;;;;35.15;21.77;;;;;;;3.66;81.18;102104.41;1727811;81;21579;-70
2020/12/20 10:56:06;;;;;;;27.98;16.35;;;;;;;3.67;81.08;102108.69;1725377;81;21190;-70
2020/12/20 10:58:34;;;;;;;25.75;15.65;;;;;;;3.66;81.13;102103.91;1732924;81;21187;-70
2020/12/20 11:01:02;;;;;;;24.85;16.35;;;;;;;3.66;81.08;102104.41;1734710;81;21299;-72
2020/12/20 11:03:29;;;;;;;21.37;13.58;;;;;;;3.68;81.16;102099.75;1737283;81;21191;-84
2020/12/20 11:05:57;;;;;;;22.67;14.68;;;;;;;3.71;81.23;102107.34;1723429;81;21123;-74
2020/12/20 11:08:26;;;;;;;24.90;14.83;;;;;;;3.71;81.22;102112.12;1724902;81;21179;-70
2020/12/20 11:10:54;;;;;;;25.12;15.58;;;;;;;3.70;81.17;102109.16;1729033;81;21778;-72
2020/12/20 11:13:23;;;;;;;27.30;16.17;;;;;;;3.65;81.15;102106.23;1728363;81;21814;-74
2020/12/20 11:15:51;;;;;;;30.08;18.27;;;;;;;3.64;81.28;102112.48;1732302;81;21515;-73
2020/12/20 11:18:19;;;;;;;27.40;15.70;;;;;;;3.67;81.35;102111.33;1731238;81;21251;-76
2020/12/20 11:20:46;;;;;;;30.32;17.65;;;;;;;3.73;81.40;102115.42;1726597;81;21175;-73
2020/12/20 11:23:14;;;;;;;26.73;15.98;;;;;;;3.75;81.34;102111.27;1729169;81;21100;-73
2020/12/20 11:25:45;;;;;;;29.39;16.95;;;;;;;3.80;81.29;102113.41;1614940;81;10000542;-82
2020/12/20 11:28:12;;;;;;;29.32;17.57;;;;;;;3.87;81.14;102109.06;1731349;82;21150;-82
2020/12/20 11:30:40;;;;;;;32.58;18.55;;;;;;;3.84;81.00;102114.70;1736132;82;21002;-74
2020/12/20 11:33:08;;;;;;;33.58;18.65;;;;;;;3.78;80.94;102118.03;1706028;82;21653;-76
2020/12/20 11:35:36;;;;;;;31.55;17.98;;;;;;;3.72;80.82;102116.93;1734528;81;22528;-79
2020/12/20 11:38:04;;;;;;;31.65;18.15;;;;;;;3.70;80.84;102124.20;1738393;81;21371;-78
2020/12/20 11:40:32;;;;;;;28.98;17.02;;;;;;;3.68;80.82;102116.42;1737285;81;21633;-72